Time,TemperatureF,DewpointF,PressureIn,WindDirection,WindDirectionDegrees,WindSpeedMPH,WindSpeedGustMPH,Humidity,HourlyPrecipIn,Conditions,Clouds,dailyrainin,SoftwareType,DateUTC
2013-02-03 00:00:00,17.9,1.0,30.01,North,6,0.0,0.0,47,0.00,OVC,,0.00,WeatherDisplay:10.37,2013-02-03 05:00:00,
2013-02-03 00:03:00,17.9,4.8,30.02,North,6,0.0,0.0,56,0.00,OVC,,0.00,WeatherDisplay:10.37,2013-02-03 05:03:00,
2013-02-03 00:06:00,18.0,4.9,30.02,North,6,0.0,0.0,56,0.00,OVC,,0.00,WeatherDisplay:10.37,2013-02-03 05:06:00,
2013-02-03 00:11:00,18.0,4.9,30.02,North,6,0.0,0.0,56,0.00,OVC,,0.00,WeatherDisplay:10.37,2013-02-03 05:11:00,
2013-02-03 00:16:00,18.0,4.9,30.02,North,6,0.0,0.0,56,0.00,OVC,,0.00,WeatherDisplay:10.37,2013-02-03 05:16:00,
2013-02-03 00:21:00,18.1,5.0,30.02,North,6,0.0,0.0,56,0.00,OVC,,0.00,WeatherDisplay:10.37,2013-02-03 05:21:00,
2013-02-03 00:26:00,17.8,4.7,30.02,North,6,0.0,0.0,56,0.00,OVC,,0.00,WeatherDisplay:10.37,2013-02-03 05:26:00,
2013-02-03 00:31:00,17.9,4.8,30.02,North,6,0.0,0.0,56,0.00,OVC,,0.00,WeatherDisplay:10.37,2013-02-03 05:31:00,
2013-02-03 00:36:00,17.7,4.6,30.02,North,6,0.0,0.0,56,0.00,OVC,,0.00,WeatherDisplay:10.37,2013-02-03 05:36:00,
2013-02-03 00:41:00,17.6,4.5,30.02,North,6,0.0,0.0,56,0.00,OVC,,0.00,WeatherDisplay:10.37,2013-02-03 05:41:00,
2013-02-03 00:46:00,17.8,4.7,30.02,North,6,0.0,0.0,56,0.00,OVC,,0.00,WeatherDisplay:10.37,2013-02-03 05:46:00,
2013-02-03 00:51:00,17.8,4.7,30.02,North,6,0.0,0.0,56,0.00,OVC,,0.00,WeatherDisplay:10.37,2013-02-03 05:51:00,
2013-02-03 00:56:00,17.9,4.8,30.02,North,6,0.0,0.0,56,0.00,OVC,,0.00,WeatherDisplay:10.37,2013-02-03 05:56:00,
2013-02-03 01:01:00,17.9,7.8,30.02,North,6,0.0,0.0,64,0.00,OVC,,0.00,WeatherDisplay:10.37,2013-02-03 06:01:00,
2013-02-03 01:06:00,17.7,7.6,30.02,North,6,0.0,0.0,64,0.00,OVC,,0.00,WeatherDisplay:10.37,2013-02-03 06:06:00,
2013-02-03 01:11:00,17.6,7.5,30.02,North,6,0.0,0.0,64,0.00,OVC,,0.00,WeatherDisplay:10.37,2013-02-03 06:11:00,
2013-02-03 01:16:00,17.7,7.6,30.02,North,6,0.0,0.0,64,0.00,OVC,,0.00,WeatherDisplay:10.37,2013-02-03 06:16:00,
2013-02-03 01:21:00,17.6,7.5,30.02,North,6,0.0,0.0,64,0.00,OVC,,0.00,WeatherDisplay:10.37,2013-02-03 06:21:00,
2013-02-03 01:26:00,17.4,7.3,30.02,North,6,0.0,0.0,64,0.00,OVC,,0.00,WeatherDisplay:10.37,2013-02-03 06:26:00,
2013-02-03 01:31:00,17.6,7.5,30.02,North,6,0.0,0.0,64,0.00,OVC,,0.00,WeatherDisplay:10.37,2013-02-03 06:31:00,
2013-02-03 01:36:00,17.5,7.4,30.02,North,6,0.0,0.0,64,0.00,OVC,,0.00,WeatherDisplay:10.37,2013-02-03 06:36:00,
2013-02-03 01:41:00,17.5,7.4,30.02,North,6,0.0,0.0,64,0.00,OVC,,0.00,WeatherDisplay:10.37,2013-02-03 06:41:00,
2013-02-03 01:46:00,17.5,7.4,30.02,North,6,0.0,0.0,64,0.00,OVC,,0.00,WeatherDisplay:10.37,2013-02-03 06:46:00,
2013-02-03 01:51:00,17.6,7.5,30.02,North,6,0.0,0.0,64,0.00,OVC,,0.00,WeatherDisplay:10.37,2013-02-03 06:51:00,
2013-02-03 01:56:00,17.5,7.4,30.02,North,6,0.0,0.0,64,0.00,OVC,,0.00,WeatherDisplay:10.37,2013-02-03 06:56:00,
2013-02-03 02:01:00,17.8,8.7,30.01,North,6,0.0,0.0,67,0.00,OVC,,0.00,WeatherDisplay:10.37,2013-02-03 07:01:00,
2013-02-03 02:06:00,17.6,8.5,30.01,North,6,0.0,0.0,67,0.00,OVC,,0.00,WeatherDisplay:10.37,2013-02-03 07:06:00,
2013-02-03 02:11:00,17.7,8.6,30.01,North,6,0.0,0.0,67,0.00,OVC,,0.00,WeatherDisplay:10.37,2013-02-03 07:11:00,
2013-02-03 02:16:00,17.5,8.4,30.01,North,6,0.0,0.0,67,0.00,OVC,,0.00,WeatherDisplay:10.37,2013-02-03 07:16:00,
2013-02-03 02:21:00,17.4,8.3,30.01,North,6,0.0,0.0,67,0.00,OVC,,0.00,WeatherDisplay:10.37,2013-02-03 07:21:00,
2013-02-03 02:26:00,17.4,8.3,30.01,North,6,0.0,0.0,67,0.00,OVC,,0.00,WeatherDisplay:10.37,2013-02-03 07:26:00,
2013-02-03 02:31:00,17.2,8.1,30.01,North,6,0.0,0.0,67,0.00,OVC,,0.00,WeatherDisplay:10.37,2013-02-03 07:31:00,
2013-02-03 02:36:00,17.3,8.2,30.01,North,6,0.0,0.0,67,0.00,OVC,,0.00,WeatherDisplay:10.37,2013-02-03 07:36:00,
2013-02-03 02:41:00,17.2,8.1,30.01,North,6,0.0,0.0,67,0.00,OVC,,0.00,WeatherDisplay:10.37,2013-02-03 07:41:00,
2013-02-03 02:46:00,17.3,8.2,30.01,North,6,0.0,0.0,67,0.00,OVC,,0.00,WeatherDisplay:10.37,2013-02-03 07:46:00,
2013-02-03 02:51:00,17.3,8.2,30.01,North,6,0.0,0.0,67,0.00,OVC,,0.00,WeatherDisplay:10.37,2013-02-03 07:51:00,
2013-02-03 02:56:00,17.1,8.0,30.01,North,6,0.0,0.0,67,0.00,OVC,,0.00,WeatherDisplay:10.37,2013-02-03 07:56:00,
2013-02-03 03:01:00,17.0,7.9,30.01,North,6,0.0,0.0,67,0.00,OVC,,0.00,WeatherDisplay:10.37,2013-02-03 08:01:00,
2013-02-03 03:06:00,17.1,8.0,30.01,North,6,0.0,0.0,67,0.00,OVC,,0.00,WeatherDisplay:10.37,2013-02-03 08:06:00,
2013-02-03 03:11:00,17.1,10.2,29.99,North,6,0.0,0.0,74,0.00,OVC,,0.00,WeatherDisplay:10.37,2013-02-03 08:11:00,
2013-02-03 03:16:00,17.1,10.2,29.99,North,6,0.0,0.0,74,0.00,OVC,,0.00,WeatherDisplay:10.37,2013-02-03 08:16:00,
2013-02-03 03:21:00,17.0,10.1,29.99,North,6,0.0,0.0,74,0.00,OVC,,0.00,WeatherDisplay:10.37,2013-02-03 08:21:00,
2013-02-03 03:26:00,16.9,10.0,29.99,North,6,0.0,0.0,74,0.00,OVC,,0.00,WeatherDisplay:10.37,2013-02-03 08:26:00,
2013-02-03 03:31:00,17.0,10.1,29.99,North,6,0.0,0.0,74,0.00,OVC,,0.00,WeatherDisplay:10.37,2013-02-03 08:31:00,
2013-02-03 03:36:00,16.9,10.0,29.99,North,6,0.0,0.0,74,0.00,OVC,,0.00,WeatherDisplay:10.37,2013-02-03 08:36:00,
2013-02-03 03:41:00,16.9,10.0,29.99,North,6,0.0,0.0,74,0.00,OVC,,0.00,WeatherDisplay:10.37,2013-02-03 08:41:00,
2013-02-03 03:46:00,16.9,10.0,29.99,North,6,0.0,0.0,74,0.00,OVC,,0.00,WeatherDisplay:10.37,2013-02-03 08:46:00,
2013-02-03 03:51:00,16.8,9.9,29.99,North,6,0.0,0.0,74,0.00,OVC,,0.00,WeatherDisplay:10.37,2013-02-03 08:51:00,
2013-02-03 03:56:00,16.7,9.8,29.99,North,6,0.0,0.0,74,0.00,OVC,,0.00,WeatherDisplay:10.37,2013-02-03 08:56:00,
2013-02-03 04:01:00,16.7,9.8,29.99,North,6,0.0,0.0,74,0.00,OVC,,0.00,WeatherDisplay:10.37,2013-02-03 09:01:00,
2013-02-03 04:06:00,16.2,9.4,29.99,North,6,0.0,0.0,74,0.00,OVC,,0.00,WeatherDisplay:10.37,2013-02-03 09:06:00,
2013-02-03 04:11:00,16.3,11.2,29.97,North,6,0.0,0.0,80,0.00,OVC,,0.00,WeatherDisplay:10.37,2013-02-03 09:11:00,
2013-02-03 04:16:00,16.2,11.1,29.97,North,6,0.0,0.0,80,0.00,OVC,,0.00,WeatherDisplay:10.37,2013-02-03 09:16:00,
2013-02-03 04:21:00,16.1,11.0,29.97,North,6,0.0,0.0,80,0.00,OVC,,0.00,WeatherDisplay:10.37,2013-02-03 09:21:00,
2013-02-03 04:26:00,16.0,10.9,29.97,North,6,0.0,0.0,80,0.00,OVC,,0.00,WeatherDisplay:10.37,2013-02-03 09:26:00,
2013-02-03 04:31:00,15.9,10.8,29.97,North,6,0.0,0.0,80,0.00,OVC,,0.00,WeatherDisplay:10.37,2013-02-03 09:31:00,
2013-02-03 04:36:00,15.7,10.6,29.97,North,6,0.0,0.0,80,0.00,OVC,,0.00,WeatherDisplay:10.37,2013-02-03 09:36:00,
2013-02-03 04:41:00,15.6,10.5,29.97,North,6,0.0,0.0,80,0.00,OVC,,0.00,WeatherDisplay:10.37,2013-02-03 09:41:00,
2013-02-03 04:46:00,15.4,10.3,29.97,North,6,0.0,0.0,80,0.00,OVC,,0.00,WeatherDisplay:10.37,2013-02-03 09:46:00,
2013-02-03 04:51:00,15.4,10.3,29.97,North,6,0.0,0.0,80,0.00,OVC,,0.00,WeatherDisplay:10.37,2013-02-03 09:51:00,
2013-02-03 04:56:00,15.4,10.3,29.97,North,6,0.0,0.0,80,0.00,OVC,,0.00,WeatherDisplay:10.37,2013-02-03 09:56:00,
2013-02-03 05:01:00,15.3,10.2,29.97,North,6,0.0,0.0,80,0.00,OVC,,0.00,WeatherDisplay:10.37,2013-02-03 10:01:00,
2013-02-03 05:06:00,15.1,10.0,29.97,North,6,0.0,0.0,80,0.00,OVC,,0.00,WeatherDisplay:10.37,2013-02-03 10:06:00,
2013-02-03 05:11:00,14.9,9.8,29.97,North,6,0.0,0.0,80,0.00,OVC,,0.00,WeatherDisplay:10.37,2013-02-03 10:11:00,
2013-02-03 05:16:00,14.6,9.6,29.97,North,6,0.0,0.0,80,0.00,OVC,,0.00,WeatherDisplay:10.37,2013-02-03 10:16:00,
2013-02-03 05:21:00,14.5,9.5,29.97,North,6,0.0,0.0,80,0.00,OVC,,0.00,WeatherDisplay:10.37,2013-02-03 10:21:00,
2013-02-03 05:26:00,15.0,9.9,29.97,North,6,0.0,0.0,80,0.00,OVC,,0.00,WeatherDisplay:10.37,2013-02-03 10:26:00,
2013-02-03 05:31:00,14.5,9.5,29.97,North,6,0.0,0.0,80,0.00,OVC,,0.00,WeatherDisplay:10.37,2013-02-03 10:31:00,
2013-02-03 05:36:00,14.2,9.2,29.97,North,6,0.0,0.0,80,0.00,OVC,,0.00,WeatherDisplay:10.37,2013-02-03 10:36:00,
2013-02-03 05:41:00,14.5,9.5,29.97,North,6,0.0,0.0,80,0.00,OVC,,0.00,WeatherDisplay:10.37,2013-02-03 10:41:00,
2013-02-03 05:46:00,14.4,9.4,29.97,North,6,0.0,0.0,80,0.00,OVC,,0.00,WeatherDisplay:10.37,2013-02-03 10:46:00,
2013-02-03 05:51:00,13.9,8.9,29.97,North,6,0.0,0.0,80,0.00,OVC,,0.00,WeatherDisplay:10.37,2013-02-03 10:51:00,
2013-02-03 05:56:00,13.8,8.8,29.97,North,6,0.0,0.0,80,0.00,OVC,,0.00,WeatherDisplay:10.37,2013-02-03 10:56:00,
2013-02-03 06:01:00,14.1,9.1,29.97,North,6,0.0,0.0,80,0.00,OVC,,0.00,WeatherDisplay:10.37,2013-02-03 11:01:00,
2013-02-03 06:06:00,14.2,9.2,29.97,North,6,0.0,0.0,80,0.00,OVC,,0.00,WeatherDisplay:10.37,2013-02-03 11:06:00,
2013-02-03 06:11:00,13.4,9.5,29.97,North,6,0.0,0.0,84,0.00,BKN,,0.00,WeatherDisplay:10.37,2013-02-03 11:11:00,
2013-02-03 06:16:00,13.3,9.4,29.97,North,6,0.0,0.0,84,0.00,BKN,,0.00,WeatherDisplay:10.37,2013-02-03 11:16:00,
2013-02-03 06:21:00,13.5,9.6,29.97,North,6,0.0,0.0,84,0.00,BKN,,0.00,WeatherDisplay:10.37,2013-02-03 11:21:00,
2013-02-03 06:26:00,13.7,9.8,29.97,North,6,0.0,0.0,84,0.00,BKN,,0.00,WeatherDisplay:10.37,2013-02-03 11:26:00,
2013-02-03 06:31:00,13.0,9.1,29.97,North,6,0.0,0.0,84,0.00,BKN,,0.00,WeatherDisplay:10.37,2013-02-03 11:31:00,
2013-02-03 06:36:00,12.9,9.0,29.97,North,6,0.0,0.0,84,0.00,BKN,,0.00,WeatherDisplay:10.37,2013-02-03 11:36:00,
2013-02-03 06:41:00,12.7,8.8,29.97,North,6,0.0,0.0,84,0.00,BKN,,0.00,WeatherDisplay:10.37,2013-02-03 11:41:00,
2013-02-03 06:46:00,12.5,8.6,29.97,North,6,0.0,0.0,84,0.00,BKN,,0.00,WeatherDisplay:10.37,2013-02-03 11:46:00,
2013-02-03 06:51:00,12.5,8.6,29.97,North,6,0.0,0.0,84,0.00,BKN,,0.00,WeatherDisplay:10.37,2013-02-03 11:51:00,
2013-02-03 06:56:00,12.2,8.3,29.97,North,6,0.0,0.0,84,0.00,BKN,,0.00,WeatherDisplay:10.37,2013-02-03 11:56:00,
2013-02-03 07:01:00,12.4,8.5,29.97,North,6,0.0,0.0,84,0.00,BKN,,0.00,WeatherDisplay:10.37,2013-02-03 12:01:00,
2013-02-03 07:06:00,12.3,8.4,29.97,North,6,0.0,0.0,84,0.00,BKN,,0.00,WeatherDisplay:10.37,2013-02-03 12:06:00,
2013-02-03 07:11:00,12.0,7.8,29.96,North,6,0.0,0.0,83,0.00,BKN,,0.00,WeatherDisplay:10.37,2013-02-03 12:11:00,
2013-02-03 07:16:00,12.1,7.9,29.96,North,6,0.0,0.0,83,0.00,BKN,,0.00,WeatherDisplay:10.37,2013-02-03 12:16:00,
2013-02-03 07:21:00,12.0,7.8,29.96,North,6,0.0,0.0,83,0.00,BKN,,0.00,WeatherDisplay:10.37,2013-02-03 12:21:00,
2013-02-03 07:26:00,12.6,8.4,29.96,North,6,0.0,0.0,83,0.00,BKN,,0.00,WeatherDisplay:10.37,2013-02-03 12:26:00,
2013-02-03 07:32:00,12.9,8.7,29.96,North,6,0.0,0.0,83,0.00,BKN,,0.00,WeatherDisplay:10.37,2013-02-03 12:32:00,
2013-02-03 07:37:00,13.0,8.8,29.96,North,6,0.0,0.0,83,0.00,BKN,,0.00,WeatherDisplay:10.37,2013-02-03 12:37:00,
2013-02-03 07:42:00,13.6,9.4,29.96,North,6,0.0,0.0,83,0.00,BKN,,0.00,WeatherDisplay:10.37,2013-02-03 12:42:00,
2013-02-03 07:47:00,13.7,9.5,29.96,North,6,0.0,0.0,83,0.00,BKN,,0.00,WeatherDisplay:10.37,2013-02-03 12:47:00,
2013-02-03 07:52:00,13.9,9.7,29.96,North,6,0.0,0.0,83,0.00,BKN,,0.00,WeatherDisplay:10.37,2013-02-03 12:52:00,
2013-02-03 07:57:00,14.6,10.4,29.96,North,6,0.0,0.0,83,0.00,BKN,,0.00,WeatherDisplay:10.37,2013-02-03 12:57:00,
2013-02-03 08:02:00,15.1,10.9,29.96,North,6,0.0,0.0,83,0.00,BKN,,0.00,WeatherDisplay:10.37,2013-02-03 13:02:00,
2013-02-03 08:07:00,16.1,11.8,29.96,North,6,0.0,0.0,83,0.00,BKN,,0.00,WeatherDisplay:10.37,2013-02-03 13:07:00,
2013-02-03 08:12:00,16.1,13.7,29.96,North,6,1.1,0.0,90,0.00,SCT,,0.00,WeatherDisplay:10.37,2013-02-03 13:12:00,
2013-02-03 08:17:00,16.2,13.8,29.96,North,6,0.0,0.0,90,0.00,SCT,,0.00,WeatherDisplay:10.37,2013-02-03 13:17:00,
2013-02-03 08:22:00,15.6,13.2,29.96,North,6,1.1,1.1,90,0.00,SCT,,0.00,WeatherDisplay:10.37,2013-02-03 13:22:00,
2013-02-03 08:27:00,16.2,13.8,29.96,North,6,0.0,0.0,90,0.00,SCT,,0.00,WeatherDisplay:10.37,2013-02-03 13:27:00,
2013-02-03 08:32:00,16.3,13.9,29.96,North,6,0.0,0.0,90,0.00,SCT,,0.00,WeatherDisplay:10.37,2013-02-03 13:32:00,
2013-02-03 08:37:00,17.2,14.8,29.96,NNE,18,2.0,0.0,90,0.00,SCT,,0.00,WeatherDisplay:10.37,2013-02-03 13:37:00,
2013-02-03 08:42:00,16.9,14.5,29.96,NE,40,0.0,0.0,90,0.00,SCT,,0.00,WeatherDisplay:10.37,2013-02-03 13:42:00,
2013-02-03 08:47:00,17.3,14.9,29.96,NE,35,0.0,0.0,90,0.00,SCT,,0.00,WeatherDisplay:10.37,2013-02-03 13:47:00,
2013-02-03 08:52:00,17.6,15.2,29.96,NE,51,0.0,0.0,90,0.00,SCT,,0.00,WeatherDisplay:10.37,2013-02-03 13:52:00,
2013-02-03 08:57:00,18.6,16.2,29.96,ENE,59,0.0,0.0,90,0.00,SCT,,0.00,WeatherDisplay:10.37,2013-02-03 13:57:00,
2013-02-03 09:02:00,18.1,15.7,29.96,NE,38,2.0,2.0,90,0.00,SCT,,0.00,WeatherDisplay:10.37,2013-02-03 14:02:00,
2013-02-03 09:07:00,18.0,15.6,29.96,NNE,24,0.0,0.0,90,0.00,SCT,,0.00,WeatherDisplay:10.37,2013-02-03 14:07:00,
2013-02-03 09:12:00,18.9,11.7,29.97,NE,38,1.1,1.1,73,0.00,CLR,,0.00,WeatherDisplay:10.37,2013-02-03 14:12:00,
2013-02-03 09:17:00,18.7,11.5,29.97,NE,52,2.3,2.3,73,0.00,CLR,,0.00,WeatherDisplay:10.37,2013-02-03 14:17:00,
2013-02-03 09:22:00,19.8,12.5,29.97,ENE,58,0.0,0.0,73,0.00,CLR,,0.00,WeatherDisplay:10.37,2013-02-03 14:22:00,
2013-02-03 09:27:00,19.8,12.5,29.97,ENE,58,0.0,0.0,73,0.00,CLR,,0.00,WeatherDisplay:10.37,2013-02-03 14:27:00,
2013-02-03 09:32:00,18.7,11.5,29.97,NE,38,3.5,3.5,73,0.00,CLR,,0.00,WeatherDisplay:10.37,2013-02-03 14:32:00,
2013-02-03 09:37:00,19.7,12.4,29.97,East,79,2.3,2.3,73,0.00,CLR,,0.00,WeatherDisplay:10.37,2013-02-03 14:37:00,
2013-02-03 09:42:00,19.3,12.1,29.97,ENE,69,0.0,0.0,73,0.00,CLR,,0.00,WeatherDisplay:10.37,2013-02-03 14:42:00,
2013-02-03 09:47:00,19.8,12.5,29.97,NE,36,5.0,5.0,73,0.00,CLR,,0.00,WeatherDisplay:10.37,2013-02-03 14:47:00,
2013-02-03 09:52:00,19.2,12.0,29.97,NNE,23,3.5,3.5,73,0.00,CLR,,0.00,WeatherDisplay:10.37,2013-02-03 14:52:00,
2013-02-03 09:57:00,20.5,13.2,29.97,NNE,23,5.0,5.0,73,0.00,CLR,,0.00,WeatherDisplay:10.37,2013-02-03 14:57:00,
2013-02-03 10:02:00,19.9,12.6,29.97,NNE,16,3.5,3.5,73,0.00,CLR,,0.00,WeatherDisplay:10.37,2013-02-03 15:02:00,
2013-02-03 10:07:00,19.9,12.6,29.97,NNE,20,3.5,3.5,73,0.00,CLR,,0.00,WeatherDisplay:10.37,2013-02-03 15:07:00,
2013-02-03 10:12:00,20.7,8.6,29.95,NNE,19,2.0,2.0,59,0.00,FEW,,0.00,WeatherDisplay:10.37,2013-02-03 15:12:00,
2013-02-03 10:17:00,20.3,8.2,29.95,NNE,19,3.5,3.5,59,0.00,FEW,,0.00,WeatherDisplay:10.37,2013-02-03 15:17:00,
2013-02-03 10:22:00,21.3,9.2,29.95,ENE,73,3.5,3.5,59,0.00,FEW,,0.00,WeatherDisplay:10.37,2013-02-03 15:22:00,
2013-02-03 10:27:00,20.1,8.1,29.95,NNE,20,3.5,3.5,59,0.00,FEW,,0.00,WeatherDisplay:10.37,2013-02-03 15:27:00,
2013-02-03 10:32:00,20.1,8.1,29.95,NNE,30,4.6,4.6,59,0.00,FEW,,0.00,WeatherDisplay:10.37,2013-02-03 15:32:00,
2013-02-03 10:37:00,19.9,7.9,29.95,North,9,3.5,3.5,59,0.00,FEW,,0.00,WeatherDisplay:10.37,2013-02-03 15:37:00,
2013-02-03 10:42:00,21.2,9.1,29.95,NNE,12,4.0,4.0,59,0.00,FEW,,0.00,WeatherDisplay:10.37,2013-02-03 15:42:00,
2013-02-03 10:47:00,20.9,8.8,29.95,NNE,21,4.6,4.6,59,0.00,FEW,,0.00,WeatherDisplay:10.37,2013-02-03 15:47:00,
2013-02-03 10:52:00,20.8,8.7,29.95,NNE,29,6.0,6.0,59,0.00,FEW,,0.00,WeatherDisplay:10.37,2013-02-03 15:52:00,
2013-02-03 10:57:00,21.6,9.5,29.95,NNE,21,3.5,3.5,59,0.00,FEW,,0.00,WeatherDisplay:10.37,2013-02-03 15:57:00,
2013-02-03 11:02:00,20.9,8.8,29.95,North,11,4.6,4.6,59,0.00,FEW,,0.00,WeatherDisplay:10.37,2013-02-03 16:02:00,
2013-02-03 11:07:00,21.2,9.1,29.95,North,8,3.5,3.5,59,0.00,FEW,,0.00,WeatherDisplay:10.37,2013-02-03 16:07:00,
2013-02-03 11:12:00,21.3,6.4,29.92,NNE,15,4.6,4.6,52,0.00,BKN,,0.00,WeatherDisplay:10.37,2013-02-03 16:12:00,
2013-02-03 11:17:00,20.6,5.7,29.92,NNE,14,4.6,4.6,52,0.00,BKN,,0.00,WeatherDisplay:10.37,2013-02-03 16:17:00,
2013-02-03 11:22:00,21.0,6.1,29.92,North,3,4.6,4.6,52,0.00,BKN,,0.00,WeatherDisplay:10.37,2013-02-03 16:22:00,
2013-02-03 11:27:00,22.2,7.2,29.92,NE,37,3.5,3.5,52,0.00,BKN,,0.00,WeatherDisplay:10.37,2013-02-03 16:27:00,
2013-02-03 11:32:00,22.3,7.3,29.92,NE,45,3.5,3.5,52,0.00,BKN,,0.00,WeatherDisplay:10.37,2013-02-03 16:32:00,
2013-02-03 11:37:00,22.1,7.1,29.92,NE,34,4.6,4.6,52,0.00,BKN,,0.00,WeatherDisplay:10.37,2013-02-03 16:37:00,
2013-02-03 11:42:00,22.0,7.0,29.92,NE,43,3.5,3.5,52,0.00,BKN,,0.00,WeatherDisplay:10.37,2013-02-03 16:42:00,
2013-02-03 11:47:00,22.6,7.6,29.92,NE,43,2.3,2.3,52,0.00,BKN,,0.00,WeatherDisplay:10.37,2013-02-03 16:47:00,
2013-02-03 11:52:00,22.4,7.4,29.92,ENE,71,3.5,3.5,52,0.00,BKN,,0.00,WeatherDisplay:10.37,2013-02-03 16:52:00,
2013-02-03 11:57:00,22.2,7.2,29.92,NNE,19,3.5,3.5,52,0.00,BKN,,0.00,WeatherDisplay:10.37,2013-02-03 16:57:00,
2013-02-03 12:02:00,23.0,8.0,29.92,NNE,19,2.3,2.3,52,0.00,BKN,,0.00,WeatherDisplay:10.37,2013-02-03 17:02:00,
2013-02-03 12:07:00,22.4,7.4,29.92,ENE,75,3.5,3.5,52,0.00,BKN,,0.00,WeatherDisplay:10.37,2013-02-03 17:07:00,
2013-02-03 12:12:00,23.3,8.2,29.88,ENE,74,1.1,1.1,52,0.00,OVC,,0.00,WeatherDisplay:10.37,2013-02-03 17:12:00,
2013-02-03 12:17:00,22.2,7.2,29.88,NE,40,3.5,3.5,52,0.00,OVC,,0.00,WeatherDisplay:10.37,2013-02-03 17:17:00,
2013-02-03 12:22:00,23.0,8.0,29.88,NE,39,3.5,3.5,52,0.00,OVC,,0.00,WeatherDisplay:10.37,2013-02-03 17:22:00,
2013-02-03 12:27:00,23.0,8.0,29.88,North,350,3.5,3.5,52,0.00,OVC,,0.00,WeatherDisplay:10.37,2013-02-03 17:27:00,
2013-02-03 12:32:00,23.3,8.2,29.88,North,351,1.1,1.1,52,0.00,OVC,,0.00,WeatherDisplay:10.37,2013-02-03 17:32:00,
2013-02-03 12:37:00,22.9,7.9,29.88,North,355,1.1,1.1,52,0.00,OVC,,0.00,WeatherDisplay:10.37,2013-02-03 17:37:00,
2013-02-03 12:42:00,22.1,7.1,29.88,North,0,3.5,3.5,52,0.00,OVC,,0.00,WeatherDisplay:10.37,2013-02-03 17:42:00,
2013-02-03 12:47:00,22.4,7.4,29.88,North,0,2.3,2.3,52,0.00,OVC,,0.00,WeatherDisplay:10.37,2013-02-03 17:47:00,
2013-02-03 12:52:00,22.7,7.7,29.88,NNE,12,3.0,3.0,52,0.00,OVC,,0.00,WeatherDisplay:10.37,2013-02-03 17:52:00,
2013-02-03 12:57:00,22.9,7.9,29.88,NNE,17,3.5,3.5,52,0.00,OVC,,0.00,WeatherDisplay:10.37,2013-02-03 17:57:00,
2013-02-03 13:02:00,23.2,8.2,29.88,North,10,2.3,2.3,52,0.00,OVC,,0.00,WeatherDisplay:10.37,2013-02-03 18:02:00,
2013-02-03 13:07:00,22.7,7.7,29.88,NNW,337,3.5,3.5,52,0.00,OVC,,0.00,WeatherDisplay:10.37,2013-02-03 18:07:00,
2013-02-03 13:12:00,22.7,5.9,29.84,North,0,3.5,3.5,48,0.00,OVC,,0.00,WeatherDisplay:10.37,2013-02-03 18:12:00,
2013-02-03 13:17:00,23.1,6.3,29.84,NE,42,3.5,3.5,48,0.00,OVC,,0.00,WeatherDisplay:10.37,2013-02-03 18:17:00,
2013-02-03 13:22:00,24.1,7.2,29.84,NNE,30,3.5,3.5,48,0.00,OVC,,0.00,WeatherDisplay:10.37,2013-02-03 18:22:00,
2013-02-03 13:27:00,25.0,8.0,29.84,NE,52,2.3,2.3,48,0.00,OVC,,0.00,WeatherDisplay:10.37,2013-02-03 18:27:00,
2013-02-03 13:32:00,22.8,6.0,29.84,NE,44,3.5,3.5,48,0.00,OVC,,0.00,WeatherDisplay:10.37,2013-02-03 18:32:00,
2013-02-03 13:37:00,24.4,7.5,29.84,NE,45,2.0,2.0,48,0.00,OVC,,0.00,WeatherDisplay:10.37,2013-02-03 18:37:00,
2013-02-03 13:42:00,23.2,6.4,29.84,ENE,73,3.5,3.5,48,0.00,OVC,,0.00,WeatherDisplay:10.37,2013-02-03 18:42:00,
2013-02-03 13:47:00,23.8,6.9,29.84,East,81,3.5,3.5,48,0.00,OVC,,0.00,WeatherDisplay:10.37,2013-02-03 18:47:00,
2013-02-03 13:52:00,22.7,5.9,29.84,NE,49,4.0,4.0,48,0.00,OVC,,0.00,WeatherDisplay:10.37,2013-02-03 18:52:00,
2013-02-03 13:57:00,22.9,6.1,29.84,ENE,76,4.0,4.0,48,0.00,OVC,,0.00,WeatherDisplay:10.37,2013-02-03 18:57:00,
2013-02-03 14:02:00,23.3,6.5,29.84,ENE,77,3.5,3.5,48,0.00,OVC,,0.00,WeatherDisplay:10.37,2013-02-03 19:02:00,
2013-02-03 14:07:00,23.3,6.5,29.84,ENE,77,3.5,3.5,48,0.00,OVC,,0.00,WeatherDisplay:10.37,2013-02-03 19:07:00,
2013-02-03 14:12:00,23.8,8.7,29.80,East,80,3.5,3.5,52,0.00,OVC,,0.00,WeatherDisplay:10.37,2013-02-03 19:12:00,
2013-02-03 14:17:00,24.4,9.3,29.80,East,79,3.5,3.5,52,0.00,OVC,,0.00,WeatherDisplay:10.37,2013-02-03 19:17:00,
2013-02-03 14:22:00,23.6,8.5,29.80,East,80,3.5,3.5,52,0.00,OVC,,0.00,WeatherDisplay:10.37,2013-02-03 19:22:00,
2013-02-03 14:27:00,23.6,8.5,29.80,East,80,3.5,3.5,52,0.00,OVC,,0.00,WeatherDisplay:10.37,2013-02-03 19:27:00,
2013-02-03 14:32:00,24.1,9.0,29.80,East,80,1.1,1.1,52,0.00,OVC,,0.00,WeatherDisplay:10.37,2013-02-03 19:32:00,
2013-02-03 14:37:00,23.9,8.8,29.80,East,80,3.5,3.5,52,0.00,OVC,,0.00,WeatherDisplay:10.37,2013-02-03 19:37:00,
2013-02-03 14:42:00,24.1,9.0,29.80,East,80,3.5,3.5,52,0.00,OVC,,0.00,WeatherDisplay:10.37,2013-02-03 19:42:00,
2013-02-03 14:47:00,23.6,8.5,29.80,East,80,2.3,2.3,52,0.00,OVC,,0.00,WeatherDisplay:10.37,2013-02-03 19:47:00,
2013-02-03 14:52:00,23.8,8.7,29.80,East,80,3.5,3.5,52,0.00,OVC,,0.00,WeatherDisplay:10.37,2013-02-03 19:52:00,
2013-02-03 14:57:00,23.5,8.4,29.80,East,80,2.3,2.3,52,0.00,OVC,,0.00,WeatherDisplay:10.37,2013-02-03 19:57:00,
2013-02-03 15:02:00,23.7,8.6,29.80,East,80,3.5,3.5,52,0.00,OVC,,0.00,WeatherDisplay:10.37,2013-02-03 20:02:00,
2013-02-03 15:07:00,24.3,9.2,29.80,East,80,2.3,2.3,52,0.00,OVC,,0.00,WeatherDisplay:10.37,2013-02-03 20:07:00,
2013-02-03 15:12:00,23.6,9.4,29.80,East,80,3.5,3.5,54,0.00,OVC,,0.00,WeatherDisplay:10.37,2013-02-03 20:12:00,
2013-02-03 15:17:00,23.7,9.5,29.80,East,80,2.0,2.0,54,0.00,OVC,,0.00,WeatherDisplay:10.37,2013-02-03 20:17:00,
2013-02-03 15:22:00,24.0,9.7,29.80,East,80,1.1,0.0,54,0.00,OVC,,0.00,WeatherDisplay:10.37,2013-02-03 20:22:00,
2013-02-03 15:27:00,23.6,9.4,29.80,East,80,1.1,1.1,54,0.00,OVC,,0.00,WeatherDisplay:10.37,2013-02-03 20:27:00,
2013-02-03 15:32:00,23.7,9.5,29.80,East,80,1.1,0.0,54,0.00,OVC,,0.00,WeatherDisplay:10.37,2013-02-03 20:32:00,
2013-02-03 15:37:00,23.5,9.3,29.80,East,80,1.1,1.1,54,0.00,OVC,,0.00,WeatherDisplay:10.37,2013-02-03 20:37:00,
2013-02-03 15:42:00,23.8,9.6,29.80,East,80,3.5,3.5,54,0.00,OVC,,0.00,WeatherDisplay:10.37,2013-02-03 20:42:00,
2013-02-03 15:47:00,23.7,9.5,29.80,East,80,3.5,3.5,54,0.00,OVC,,0.00,WeatherDisplay:10.37,2013-02-03 20:47:00,
2013-02-03 15:52:00,23.4,9.2,29.80,East,80,1.1,1.1,54,0.00,OVC,,0.00,WeatherDisplay:10.37,2013-02-03 20:52:00,
2013-02-03 15:57:00,23.4,9.2,29.80,East,80,3.5,3.5,54,0.00,OVC,,0.00,WeatherDisplay:10.37,2013-02-03 20:57:00,
2013-02-03 16:02:00,23.5,9.3,29.80,East,80,1.1,0.0,54,0.00,OVC,,0.00,WeatherDisplay:10.37,2013-02-03 21:02:00,
2013-02-03 16:07:00,23.5,9.3,29.80,East,80,2.3,2.3,54,0.00,OVC,,0.00,WeatherDisplay:10.37,2013-02-03 21:07:00,
2013-02-03 16:12:00,23.1,10.1,29.78,East,80,3.0,3.0,57,0.00,OVC,,0.00,WeatherDisplay:10.37,2013-02-03 21:12:00,
2013-02-03 16:17:00,23.3,10.3,29.78,East,80,2.0,2.0,57,0.00,OVC,,0.00,WeatherDisplay:10.37,2013-02-03 21:17:00,
2013-02-03 16:22:00,23.2,10.2,29.78,East,80,1.1,1.4,57,0.00,OVC,,0.00,WeatherDisplay:10.37,2013-02-03 21:22:00,
2013-02-03 16:27:00,22.7,9.7,29.78,East,80,1.1,1.1,57,0.00,OVC,,0.00,WeatherDisplay:10.37,2013-02-03 21:27:00,
2013-02-03 16:32:00,22.9,9.9,29.78,East,80,0.0,0.0,57,0.00,OVC,,0.00,WeatherDisplay:10.37,2013-02-03 21:32:00,
2013-02-03 16:37:00,22.6,9.6,29.78,East,80,1.1,1.1,57,0.00,OVC,,0.00,WeatherDisplay:10.37,2013-02-03 21:37:00,
2013-02-03 16:42:00,22.5,9.5,29.78,East,80,0.0,0.0,57,0.00,OVC,,0.00,WeatherDisplay:10.37,2013-02-03 21:42:00,
2013-02-03 16:47:00,22.6,9.6,29.78,East,80,0.0,0.0,57,0.00,OVC,,0.00,WeatherDisplay:10.37,2013-02-03 21:47:00,
2013-02-03 16:52:00,22.5,9.5,29.78,East,80,1.1,1.1,57,0.00,OVC,,0.00,WeatherDisplay:10.37,2013-02-03 21:52:00,
2013-02-03 16:57:00,22.7,9.7,29.78,East,80,0.0,0.0,57,0.00,OVC,,0.00,WeatherDisplay:10.37,2013-02-03 21:57:00,
2013-02-03 17:02:00,22.6,9.6,29.78,East,80,0.0,0.0,57,0.00,OVC,,0.00,WeatherDisplay:10.37,2013-02-03 22:02:00,
2013-02-03 17:07:00,22.6,9.6,29.78,East,80,0.0,0.0,57,0.00,OVC,,0.00,WeatherDisplay:10.37,2013-02-03 22:07:00,
2013-02-03 17:12:00,23.0,9.6,29.77,East,80,1.1,1.1,56,0.00,OVC,,0.00,WeatherDisplay:10.37,2013-02-03 22:12:00,
2013-02-03 17:17:00,22.9,9.5,29.77,East,80,0.0,0.0,56,0.00,OVC,,0.00,WeatherDisplay:10.37,2013-02-03 22:17:00,
2013-02-03 17:22:00,22.9,9.5,29.77,East,80,1.1,0.0,56,0.00,OVC,,0.00,WeatherDisplay:10.37,2013-02-03 22:22:00,
2013-02-03 17:27:00,22.8,9.4,29.77,East,80,0.0,0.0,56,0.00,OVC,,0.00,WeatherDisplay:10.37,2013-02-03 22:27:00,
2013-02-03 17:32:00,22.9,9.5,29.77,East,80,0.0,0.0,56,0.00,OVC,,0.00,WeatherDisplay:10.37,2013-02-03 22:32:00,
2013-02-03 17:37:00,22.8,9.4,29.77,East,80,0.0,0.0,56,0.00,OVC,,0.00,WeatherDisplay:10.37,2013-02-03 22:37:00,
2013-02-03 17:42:00,22.9,9.5,29.77,East,80,0.0,0.0,56,0.00,OVC,,0.00,WeatherDisplay:10.37,2013-02-03 22:42:00,
2013-02-03 17:47:00,22.9,9.5,29.77,East,80,0.0,0.0,56,0.00,OVC,,0.00,WeatherDisplay:10.37,2013-02-03 22:47:00,
2013-02-03 17:52:00,22.7,9.3,29.77,East,80,0.0,0.0,56,0.00,OVC,,0.00,WeatherDisplay:10.37,2013-02-03 22:52:00,
2013-02-03 17:57:00,22.6,9.2,29.77,East,80,0.0,0.0,56,0.00,OVC,,0.00,WeatherDisplay:10.37,2013-02-03 22:57:00,
2013-02-03 18:02:00,22.4,9.1,29.77,East,80,0.0,0.0,56,0.00,OVC,,0.00,WeatherDisplay:10.37,2013-02-03 23:02:00,
2013-02-03 18:07:00,22.4,9.1,29.77,East,80,0.0,0.0,56,0.00,OVC,,0.00,WeatherDisplay:10.37,2013-02-03 23:07:00,
2013-02-03 18:12:00,22.6,11.5,29.76,East,80,0.0,0.0,62,0.00,OVC,,0.00,WeatherDisplay:10.37,2013-02-03 23:12:00,
2013-02-03 18:17:00,22.5,11.4,29.76,East,80,0.0,0.0,62,0.00,OVC,,0.00,WeatherDisplay:10.37,2013-02-03 23:17:00,
2013-02-03 18:22:00,22.4,11.3,29.76,East,80,0.0,0.0,62,0.00,OVC,,0.00,WeatherDisplay:10.37,2013-02-03 23:22:00,
2013-02-03 18:27:00,22.3,11.2,29.76,East,80,0.0,0.0,62,0.00,OVC,,0.00,WeatherDisplay:10.37,2013-02-03 23:27:00,
2013-02-03 18:32:00,22.4,11.3,29.76,East,80,0.0,0.0,62,0.00,OVC,,0.00,WeatherDisplay:10.37,2013-02-03 23:32:00,
2013-02-03 18:37:00,22.4,11.3,29.76,East,80,0.0,0.0,62,0.00,OVC,,0.00,WeatherDisplay:10.37,2013-02-03 23:37:00,
2013-02-03 18:42:00,22.1,11.1,29.76,East,80,0.0,0.0,62,0.00,OVC,,0.00,WeatherDisplay:10.37,2013-02-03 23:42:00,
2013-02-03 18:47:00,22.2,11.1,29.76,East,80,0.0,0.0,62,0.00,OVC,,0.00,WeatherDisplay:10.37,2013-02-03 23:47:00,
2013-02-03 18:52:00,22.2,11.1,29.76,East,80,0.0,0.0,62,0.00,OVC,,0.00,WeatherDisplay:10.37,2013-02-03 23:52:00,
2013-02-03 18:57:00,22.1,11.1,29.76,East,80,0.0,0.0,62,0.00,OVC,,0.00,WeatherDisplay:10.37,2013-02-03 23:57:00,
2013-02-03 19:02:00,22.1,9.9,29.75,East,80,0.0,0.0,59,0.00,OVC,,0.00,WeatherDisplay:10.37,2013-02-04 00:02:00,
2013-02-03 19:07:00,22.1,9.9,29.75,East,80,0.0,0.0,59,0.00,OVC,,0.00,WeatherDisplay:10.37,2013-02-04 00:07:00,
2013-02-03 19:12:00,22.3,10.1,29.75,East,80,0.0,0.0,59,0.00,OVC,,0.00,WeatherDisplay:10.37,2013-02-04 00:12:00,
2013-02-03 19:17:00,22.2,10.0,29.75,East,80,0.0,0.0,59,0.00,OVC,,0.00,WeatherDisplay:10.37,2013-02-04 00:17:00,
2013-02-03 19:22:00,22.2,10.0,29.75,East,80,0.0,0.0,59,0.00,OVC,,0.00,WeatherDisplay:10.37,2013-02-04 00:22:00,
2013-02-03 19:27:00,22.1,9.9,29.75,East,80,0.0,0.0,59,0.00,OVC,,0.00,WeatherDisplay:10.37,2013-02-04 00:27:00,
2013-02-03 19:32:00,22.2,10.0,29.75,East,80,0.0,0.0,59,0.00,OVC,,0.00,WeatherDisplay:10.37,2013-02-04 00:32:00,
2013-02-03 19:37:00,22.1,9.9,29.75,East,80,0.0,0.0,59,0.00,OVC,,0.00,WeatherDisplay:10.37,2013-02-04 00:37:00,
2013-02-03 19:42:00,22.2,10.0,29.75,East,80,0.0,0.0,59,0.00,OVC,,0.00,WeatherDisplay:10.37,2013-02-04 00:42:00,
2013-02-03 19:47:00,22.5,10.3,29.75,East,80,0.0,0.0,59,0.00,OVC,,0.00,WeatherDisplay:10.37,2013-02-04 00:47:00,
2013-02-03 19:52:00,22.4,10.2,29.75,East,80,0.0,0.0,59,0.00,OVC,,0.00,WeatherDisplay:10.37,2013-02-04 00:52:00,
2013-02-03 19:57:00,22.5,10.3,29.75,East,80,0.0,0.0,59,0.00,OVC,,0.00,WeatherDisplay:10.37,2013-02-04 00:57:00,
2013-02-03 20:02:00,22.4,10.2,29.75,East,80,0.0,0.0,59,0.00,OVC,,0.00,WeatherDisplay:10.37,2013-02-04 01:02:00,
2013-02-03 20:07:00,22.3,10.1,29.75,East,80,0.0,0.0,59,0.00,OVC,,0.00,WeatherDisplay:10.37,2013-02-04 01:07:00,
2013-02-03 20:12:00,21.9,11.6,29.76,East,80,0.0,0.0,64,0.00,OVC,,0.00,WeatherDisplay:10.37,2013-02-04 01:12:00,
2013-02-03 20:17:00,22.5,12.1,29.76,East,80,0.0,0.0,64,0.00,OVC,,0.00,WeatherDisplay:10.37,2013-02-04 01:17:00,
2013-02-03 20:22:00,22.5,12.1,29.76,East,80,0.0,0.0,64,0.00,OVC,,0.00,WeatherDisplay:10.37,2013-02-04 01:22:00,
2013-02-03 20:27:00,22.4,12.1,29.76,East,80,0.0,0.0,64,0.00,OVC,,0.00,WeatherDisplay:10.37,2013-02-04 01:27:00,
2013-02-03 20:32:00,22.2,11.9,29.76,East,80,0.0,0.0,64,0.00,OVC,,0.00,WeatherDisplay:10.37,2013-02-04 01:32:00,
2013-02-03 20:37:00,22.1,11.8,29.76,East,80,0.0,0.0,64,0.00,OVC,,0.00,WeatherDisplay:10.37,2013-02-04 01:37:00,
2013-02-03 20:42:00,22.0,11.7,29.76,East,80,0.0,0.0,64,0.00,OVC,,0.00,WeatherDisplay:10.37,2013-02-04 01:42:00,
2013-02-03 20:47:00,22.1,11.8,29.76,East,80,0.0,0.0,64,0.00,OVC,,0.00,WeatherDisplay:10.37,2013-02-04 01:47:00,
2013-02-03 20:52:00,21.9,11.6,29.76,East,80,0.0,0.0,64,0.00,OVC,,0.00,WeatherDisplay:10.37,2013-02-04 01:52:00,
2013-02-03 20:57:00,22.2,11.9,29.76,East,80,0.0,0.0,64,0.00,OVC,,0.00,WeatherDisplay:10.37,2013-02-04 01:57:00,
2013-02-03 21:02:00,21.9,10.9,29.75,East,80,0.0,0.0,62,0.00,OVC,,0.00,WeatherDisplay:10.37,2013-02-04 02:02:00,
2013-02-03 21:07:00,21.8,10.8,29.75,East,80,0.0,0.0,62,0.00,OVC,,0.00,WeatherDisplay:10.37,2013-02-04 02:07:00,
2013-02-03 21:12:00,21.7,10.7,29.75,East,80,0.0,0.0,62,0.00,OVC,,0.00,WeatherDisplay:10.37,2013-02-04 02:12:00,
2013-02-03 21:17:00,21.9,10.9,29.75,East,80,0.0,0.0,62,0.00,OVC,,0.00,WeatherDisplay:10.37,2013-02-04 02:17:00,
2013-02-03 21:22:00,21.8,10.8,29.75,East,80,0.0,0.0,62,0.00,OVC,,0.00,WeatherDisplay:10.37,2013-02-04 02:22:00,
2013-02-03 21:27:00,21.7,10.7,29.75,East,80,0.0,0.0,62,0.00,OVC,,0.00,WeatherDisplay:10.37,2013-02-04 02:27:00,
2013-02-03 21:32:00,21.7,10.7,29.75,East,80,0.0,0.0,62,0.00,OVC,,0.00,WeatherDisplay:10.37,2013-02-04 02:32:00,
2013-02-03 21:37:00,21.5,10.5,29.75,East,80,0.0,0.0,62,0.00,OVC,,0.00,WeatherDisplay:10.37,2013-02-04 02:37:00,
2013-02-03 21:42:00,21.2,10.2,29.75,East,80,0.0,0.0,62,0.00,OVC,,0.00,WeatherDisplay:10.37,2013-02-04 02:42:00,
2013-02-03 21:47:00,21.2,10.2,29.75,East,80,0.0,0.0,62,0.00,OVC,,0.00,WeatherDisplay:10.37,2013-02-04 02:47:00,
2013-02-03 21:53:00,21.1,10.1,29.75,East,80,0.0,0.0,62,0.00,OVC,,0.00,WeatherDisplay:10.37,2013-02-04 02:53:00,
2013-02-03 21:58:00,21.2,10.2,29.75,East,80,0.0,0.0,62,0.00,OVC,,0.00,WeatherDisplay:10.37,2013-02-04 02:58:00,
2013-02-03 22:03:00,21.3,10.3,29.75,East,80,0.0,0.0,62,0.00,OVC,,0.00,WeatherDisplay:10.37,2013-02-04 03:03:00,
2013-02-03 22:08:00,21.0,10.0,29.75,East,80,0.0,0.0,62,0.00,OVC,,0.00,WeatherDisplay:10.37,2013-02-04 03:08:00,
2013-02-03 22:13:00,21.4,11.1,29.73,East,80,0.0,0.0,64,0.00,OVC,,0.00,WeatherDisplay:10.37,2013-02-04 03:13:00,
2013-02-03 22:18:00,21.1,10.8,29.73,East,80,0.0,0.0,64,0.00,OVC,,0.00,WeatherDisplay:10.37,2013-02-04 03:18:00,
2013-02-03 22:23:00,21.1,10.8,29.73,East,80,0.0,0.0,64,0.00,OVC,,0.00,WeatherDisplay:10.37,2013-02-04 03:23:00,
2013-02-03 22:28:00,21.0,10.7,29.73,East,80,0.0,0.0,64,0.00,OVC,,0.00,WeatherDisplay:10.37,2013-02-04 03:28:00,
2013-02-03 22:33:00,20.9,10.6,29.73,East,80,0.0,0.0,64,0.00,OVC,,0.00,WeatherDisplay:10.37,2013-02-04 03:33:00,
2013-02-03 22:38:00,20.9,10.6,29.73,East,80,0.0,0.0,64,0.00,OVC,,0.00,WeatherDisplay:10.37,2013-02-04 03:38:00,
2013-02-03 22:43:00,20.9,10.6,29.73,East,80,0.0,0.0,64,0.00,OVC,,0.00,WeatherDisplay:10.37,2013-02-04 03:43:00,
2013-02-03 22:48:00,20.7,10.4,29.73,East,80,0.0,0.0,64,0.00,OVC,,0.00,WeatherDisplay:10.37,2013-02-04 03:48:00,
2013-02-03 22:53:00,20.6,10.3,29.73,East,80,0.0,0.0,64,0.00,OVC,,0.00,WeatherDisplay:10.37,2013-02-04 03:53:00,
2013-02-03 22:58:00,20.5,10.2,29.73,East,80,0.0,0.0,64,0.00,OVC,,0.00,WeatherDisplay:10.37,2013-02-04 03:58:00,
2013-02-03 23:03:00,20.7,10.4,29.73,East,80,0.0,0.0,64,0.00,OVC,,0.00,WeatherDisplay:10.37,2013-02-04 04:03:00,
2013-02-03 23:08:00,20.5,10.2,29.73,East,80,0.0,0.0,64,0.00,OVC,,0.00,WeatherDisplay:10.37,2013-02-04 04:08:00,
2013-02-03 23:13:00,20.6,11.7,29.72,East,80,0.0,0.0,68,0.00,OVC,,0.00,WeatherDisplay:10.37,2013-02-04 04:13:00,
2013-02-03 23:18:00,20.3,11.4,29.72,East,80,0.0,0.0,68,0.00,OVC,,0.00,WeatherDisplay:10.37,2013-02-04 04:18:00,
2013-02-03 23:23:00,20.3,11.4,29.72,East,80,0.0,0.0,68,0.00,OVC,,0.00,WeatherDisplay:10.37,2013-02-04 04:23:00,
2013-02-03 23:28:00,19.8,10.9,29.72,East,80,0.0,0.0,68,0.00,OVC,,0.00,WeatherDisplay:10.37,2013-02-04 04:28:00,
2013-02-03 23:33:00,19.6,10.7,29.72,East,80,0.0,0.0,68,0.00,OVC,,0.00,WeatherDisplay:10.37,2013-02-04 04:33:00,
2013-02-03 23:38:00,19.3,10.5,29.72,East,80,0.0,0.0,68,0.00,OVC,,0.00,WeatherDisplay:10.37,2013-02-04 04:38:00,
2013-02-03 23:43:00,19.3,10.5,29.72,East,80,0.0,0.0,68,0.00,OVC,,0.00,WeatherDisplay:10.37,2013-02-04 04:43:00,
2013-02-03 23:48:00,19.3,10.5,29.72,East,80,0.0,0.0,68,0.00,OVC,,0.00,WeatherDisplay:10.37,2013-02-04 04:48:00,
2013-02-03 23:53:00,19.0,10.2,29.72,East,80,0.0,0.0,68,0.00,OVC,,0.00,WeatherDisplay:10.37,2013-02-04 04:53:00,
2013-02-03 23:58:00,18.7,9.9,29.72,East,80,0.0,0.0,68,0.00,OVC,,0.00,WeatherDisplay:10.37,2013-02-04 04:58:00,